createdAt,value
2023-03-31T00:01:28.606Z,21.77
2023-03-31T00:04:05.754Z,17.88
2023-03-31T00:06:38.353Z,18.10
2023-03-31T00:09:10.279Z,17.83
2023-03-31T00:11:40.045Z,15.25
2023-03-31T00:14:10.057Z,15.07
2023-03-31T00:16:39.979Z,15.93
2023-03-31T00:19:18.203Z,15.38
2023-03-31T00:21:47.812Z,13.38
2023-03-31T00:24:16.922Z,16.73
2023-03-31T00:26:46.232Z,14.32
2023-03-31T00:29:15.510Z,15.95
2023-03-31T00:31:44.222Z,13.98
2023-03-31T00:34:15.773Z,14.55
2023-03-31T00:36:47.949Z,14.60
2023-03-31T00:39:19.396Z,16.98
2023-03-31T00:41:48.305Z,16.95
2023-03-31T00:44:23.141Z,15.95
2023-03-31T00:46:55.467Z,14.63
2023-03-31T00:49:30.573Z,17.27
2023-03-31T00:52:03.761Z,15.13
2023-03-31T00:54:34.909Z,13.80
2023-03-31T00:57:07.039Z,12.85
2023-03-31T00:59:39.794Z,14.25
2023-03-31T01:02:09.342Z,13.60
2023-03-31T01:04:42.989Z,15.48
2023-03-31T01:07:18.593Z,13.13
2023-03-31T01:09:49.276Z,13.88
2023-03-31T01:12:19.922Z,16.20
2023-03-31T01:14:50.194Z,31.73
2023-03-31T01:17:21.834Z,16.70
2023-03-31T01:20:06.999Z,14.20
2023-03-31T01:23:32.705Z,14.13
2023-03-31T01:26:33.572Z,13.43
2023-03-31T01:29:11.520Z,15.10
2023-03-31T01:32:02.491Z,13.68
2023-03-31T01:35:00.221Z,18.02
2023-03-31T01:37:53.221Z,16.20
2023-03-31T01:40:54.470Z,16.50
2023-03-31T01:43:27.861Z,19.08
2023-03-31T01:46:02.948Z,13.27
2023-03-31T01:48:44.705Z,14.07
2023-03-31T01:51:19.679Z,15.85
2023-03-31T01:53:53.361Z,14.13
2023-03-31T01:56:29.809Z,16.70
2023-03-31T01:59:03.012Z,14.43
2023-03-31T02:01:38.168Z,14.35
2023-03-31T02:04:14.922Z,14.98
2023-03-31T02:06:53.078Z,14.35
2023-03-31T02:09:24.614Z,16.95
2023-03-31T02:11:57.162Z,14.30
2023-03-31T02:14:29.264Z,17.98
2023-03-31T02:17:02.411Z,15.15
2023-03-31T02:19:35.044Z,14.75
2023-03-31T02:22:07.276Z,30.52
2023-03-31T02:24:37.841Z,15.10
2023-03-31T02:27:15.423Z,15.13
2023-03-31T02:29:44.291Z,14.23
2023-03-31T02:32:20.612Z,15.98
2023-03-31T02:34:49.481Z,14.90
2023-03-31T02:37:18.673Z,17.70
2023-03-31T02:39:50.384Z,15.10
2023-03-31T02:42:20.930Z,18.02
2023-03-31T02:44:50.144Z,16.08
2023-03-31T02:47:20.829Z,17.02
2023-03-31T02:49:53.985Z,15.52
2023-03-31T02:52:42.484Z,17.92
2023-03-31T02:55:47.393Z,15.55
2023-03-31T02:58:48.007Z,17.15
2023-03-31T03:01:44.592Z,17.75
2023-03-31T03:04:35.383Z,16.75
2023-03-31T03:07:10.790Z,15.70
2023-03-31T03:09:49.648Z,15.30
2023-03-31T03:12:24.043Z,18.23
2023-03-31T03:15:02.554Z,14.85
2023-03-31T03:17:38.224Z,15.05
2023-03-31T03:20:09.852Z,18.27
2023-03-31T03:22:38.897Z,23.95
2023-03-31T03:25:10.635Z,15.30
2023-03-31T03:27:40.915Z,15.20
2023-03-31T03:30:13.311Z,15.70
2023-03-31T03:32:43.296Z,16.30
2023-03-31T03:35:12.504Z,15.57
2023-03-31T03:37:41.854Z,15.77
2023-03-31T03:40:11.718Z,16.27
2023-03-31T03:42:40.516Z,15.55
2023-03-31T03:45:11.647Z,16.27
2023-03-31T03:47:40.598Z,16.15
2023-03-31T03:50:13.439Z,16.92
2023-03-31T03:52:43.367Z,15.00
2023-03-31T03:55:12.559Z,16.17
2023-03-31T03:57:42.429Z,16.02
2023-03-31T04:00:13.647Z,14.98
2023-03-31T04:02:42.428Z,15.88
2023-03-31T04:05:12.748Z,15.13
2023-03-31T04:07:43.775Z,26.33
2023-03-31T04:10:13.477Z,17.20
2023-03-31T04:12:43.568Z,15.60
2023-03-31T04:15:13.836Z,16.95
2023-03-31T04:17:42.509Z,16.05
2023-03-31T04:20:13.675Z,25.20
2023-03-31T04:22:47.426Z,15.70
2023-03-31T04:25:17.598Z,17.63
2023-03-31T04:27:54.942Z,15.95
2023-03-31T04:30:31.308Z,18.55
2023-03-31T04:33:01.705Z,16.80
2023-03-31T04:35:42.897Z,16.40
2023-03-31T04:38:11.442Z,16.73
2023-03-31T04:40:41.542Z,16.70
2023-03-31T04:43:10.193Z,16.17
2023-03-31T04:45:40.162Z,17.00
2023-03-31T04:48:09.833Z,16.00
2023-03-31T04:50:38.788Z,16.25
2023-03-31T04:53:09.062Z,16.40
2023-03-31T04:55:37.699Z,16.30
2023-03-31T04:58:06.702Z,16.90
2023-03-31T05:00:35.390Z,17.00
2023-03-31T05:03:07.048Z,16.85
2023-03-31T05:05:35.895Z,17.65
2023-03-31T05:08:06.090Z,17.55
2023-03-31T05:10:36.471Z,17.02
2023-03-31T05:13:05.119Z,17.23
2023-03-31T05:15:35.011Z,16.88
2023-03-31T05:18:03.811Z,16.92
2023-03-31T05:20:33.875Z,17.20
2023-03-31T05:23:02.365Z,17.90
2023-03-31T05:25:33.675Z,17.30
2023-03-31T05:28:03.420Z,17.50
2023-03-31T05:30:31.953Z,17.13
2023-03-31T05:33:00.553Z,17.75
2023-03-31T05:35:30.142Z,19.65
2023-03-31T05:38:00.128Z,17.27
2023-03-31T05:40:28.911Z,26.20
2023-03-31T05:42:57.414Z,18.13
2023-03-31T05:45:25.981Z,20.27
2023-03-31T05:47:54.494Z,17.88
2023-03-31T05:50:24.010Z,20.35
2023-03-31T05:52:52.559Z,17.95
2023-03-31T05:55:22.595Z,20.15
2023-03-31T05:57:51.205Z,18.33
2023-03-31T06:00:20.342Z,19.83
2023-03-31T06:02:48.924Z,18.98
2023-03-31T06:05:17.610Z,20.42
2023-03-31T06:07:46.216Z,19.77
2023-03-31T06:10:14.782Z,20.10
2023-03-31T06:12:44.790Z,18.73
2023-03-31T06:15:13.365Z,19.98
2023-03-31T06:17:42.236Z,19.27
2023-03-31T06:20:26.392Z,18.88
2023-03-31T06:22:56.778Z,17.58
2023-03-31T06:25:32.385Z,38.70
2023-03-31T06:28:08.111Z,17.23
2023-03-31T06:30:36.922Z,18.77
2023-03-31T06:33:05.807Z,18.00
2023-03-31T06:35:34.505Z,19.08
2023-03-31T06:38:03.021Z,22.65
2023-03-31T06:40:31.899Z,18.80
2023-03-31T06:43:00.529Z,18.70
2023-03-31T06:45:30.907Z,21.45
2023-03-31T06:47:59.605Z,19.20
2023-03-31T06:50:28.228Z,21.95
2023-03-31T06:53:05.726Z,20.05
2023-03-31T06:55:36.110Z,19.05
2023-03-31T06:58:04.797Z,19.52
2023-03-31T07:00:35.490Z,19.10
2023-03-31T07:03:04.923Z,20.67
2023-03-31T07:05:33.559Z,19.50
2023-03-31T07:08:02.811Z,21.20
2023-03-31T07:10:34.154Z,19.85
2023-03-31T07:13:05.106Z,19.52
2023-03-31T07:15:36.717Z,21.38
2023-03-31T07:18:05.706Z,19.38
2023-03-31T07:20:34.402Z,19.08
2023-03-31T07:23:06.106Z,22.73
2023-03-31T07:25:34.929Z,409.35
2023-03-31T07:28:04.621Z,20.13
2023-03-31T07:30:35.713Z,21.10
2023-03-31T07:33:06.969Z,21.65
2023-03-31T07:36:11.698Z,605.58
2023-03-31T07:38:42.028Z,918.38
2023-03-31T07:41:15.938Z,528.25
2023-03-31T07:43:46.715Z,446.65
2023-03-31T07:46:26.734Z,214.80
2023-03-31T07:51:29.004Z,124.50
2023-03-31T07:54:27.636Z,53.53
2023-03-31T07:57:01.947Z,74.82
2023-03-31T07:59:31.221Z,19.83
2023-03-31T08:02:03.052Z,35.53
2023-03-31T08:04:35.405Z,25.75
2023-03-31T08:07:08.778Z,20.98
2023-03-31T08:09:37.776Z,20.15
2023-03-31T08:12:10.595Z,21.02
2023-03-31T08:14:41.760Z,19.75
2023-03-31T08:17:11.115Z,19.27
2023-03-31T08:19:44.784Z,19.95
2023-03-31T08:22:16.710Z,22.70
2023-03-31T08:24:52.317Z,559.67
2023-03-31T08:27:26.159Z,294.05
2023-03-31T08:29:57.267Z,302.98
2023-03-31T08:32:27.097Z,289.02
2023-03-31T08:34:58.193Z,46.25
2023-03-31T08:37:28.506Z,33.42
2023-03-31T08:39:58.831Z,21.20
2023-03-31T08:42:37.975Z,32.00
2023-03-31T08:45:19.079Z,24.23
2023-03-31T08:47:52.071Z,20.77
2023-03-31T08:50:56.354Z,33.75
2023-03-31T08:53:59.221Z,26.02
2023-03-31T08:56:49.994Z,21.70
2023-03-31T09:02:54.278Z,29.80
2023-03-31T09:05:59.520Z,25.33
2023-03-31T09:08:42.918Z,22.85
2023-03-31T09:11:56.663Z,23.63
2023-03-31T09:14:44.397Z,21.30
2023-03-31T09:17:19.835Z,117.53
2023-03-31T09:19:56.246Z,20.80
2023-03-31T09:22:35.635Z,101.53
2023-03-31T09:25:12.482Z,19.58
2023-03-31T09:27:43.919Z,95.28
2023-03-31T09:30:20.699Z,20.23
2023-03-31T09:32:53.973Z,19.88
2023-03-31T09:35:26.342Z,23.50
2023-03-31T09:37:57.381Z,19.30
2023-03-31T09:40:34.324Z,19.45
2023-03-31T09:43:24.099Z,21.75
2023-03-31T09:48:30.584Z,23.23
2023-03-31T09:51:01.464Z,157.32
2023-03-31T09:53:40.902Z,22.80
2023-03-31T09:56:13.801Z,21.23
2023-03-31T09:59:14.203Z,21.13
2023-03-31T10:01:48.950Z,21.70
2023-03-31T10:04:23.110Z,23.40
2023-03-31T10:07:02.199Z,20.35
2023-03-31T10:09:35.520Z,21.60
2023-03-31T10:12:08.716Z,20.80
2023-03-31T10:14:43.013Z,20.20
2023-03-31T10:17:16.861Z,20.33
2023-03-31T10:19:50.835Z,20.67
2023-03-31T10:22:29.603Z,24.55
2023-03-31T10:25:13.654Z,20.65
2023-03-31T10:27:43.266Z,20.83
2023-03-31T10:30:14.440Z,21.52
2023-03-31T10:32:44.274Z,21.50
2023-03-31T10:35:24.544Z,21.83
2023-03-31T10:37:58.292Z,22.13
2023-03-31T10:40:30.049Z,24.40
2023-03-31T10:43:06.369Z,20.85
2023-03-31T10:45:42.833Z,21.45
2023-03-31T10:48:20.758Z,21.70
2023-03-31T10:50:50.164Z,21.95
2023-03-31T10:53:20.105Z,23.50
2023-03-31T10:56:10.995Z,21.80
2023-03-31T10:59:11.075Z,21.25
2023-03-31T11:01:53.649Z,21.38
2023-03-31T11:04:43.596Z,22.02
2023-03-31T11:07:28.587Z,21.10
2023-03-31T11:10:11.007Z,20.35
2023-03-31T11:12:53.413Z,19.75
2023-03-31T11:15:27.266Z,23.65
2023-03-31T11:18:18.896Z,20.33
2023-03-31T11:20:59.283Z,21.33
2023-03-31T11:23:39.835Z,23.60
2023-03-31T11:26:13.169Z,22.00
2023-03-31T11:29:02.196Z,22.58
2023-03-31T11:31:50.071Z,22.25
2023-03-31T11:34:37.966Z,24.65
2023-03-31T11:37:35.580Z,21.13
2023-03-31T11:40:23.390Z,21.80
2023-03-31T11:42:56.574Z,21.80
2023-03-31T11:45:31.088Z,23.58
2023-03-31T11:48:07.406Z,21.05
2023-03-31T11:50:40.792Z,23.80
2023-03-31T11:53:18.548Z,26.08
2023-03-31T11:55:50.688Z,21.33
2023-03-31T11:58:22.781Z,24.98
2023-03-31T12:00:58.774Z,22.47
2023-03-31T12:03:39.418Z,24.63
2023-03-31T12:06:19.141Z,22.65
2023-03-31T12:09:00.047Z,24.15
2023-03-31T12:11:34.476Z,25.23
2023-03-31T12:14:17.652Z,22.85
2023-03-31T12:19:23.840Z,26.70
2023-03-31T12:21:56.822Z,34.08
2023-03-31T12:27:04.564Z,23.30
2023-03-31T12:29:36.035Z,21.92
2023-03-31T12:32:13.713Z,231.75
2023-03-31T12:34:47.535Z,21.98
2023-03-31T12:37:49.165Z,23.95
2023-03-31T12:40:27.701Z,23.35
2023-03-31T12:43:08.625Z,22.85
2023-03-31T12:45:41.404Z,21.00
2023-03-31T12:48:43.211Z,23.92
2023-03-31T12:51:30.056Z,23.38
2023-03-31T12:54:11.842Z,22.95
2023-03-31T12:57:07.183Z,22.75
2023-03-31T12:59:37.560Z,24.67
2023-03-31T13:02:26.065Z,23.05
2023-03-31T13:04:56.751Z,27.88
2023-03-31T13:07:41.945Z,28.20
2023-03-31T13:10:28.472Z,26.52
2023-03-31T13:13:04.632Z,24.45
2023-03-31T13:15:34.398Z,24.15
2023-03-31T13:18:04.658Z,24.80
2023-03-31T13:20:37.912Z,36.03
2023-03-31T13:23:16.283Z,24.17
2023-03-31T13:25:50.688Z,24.60
2023-03-31T13:28:34.872Z,87.53
2023-03-31T13:31:06.336Z,23.75
2023-03-31T13:33:46.428Z,22.90
2023-03-31T13:36:55.209Z,25.23
2023-03-31T13:39:45.972Z,35.63
2023-03-31T13:42:44.504Z,25.80
2023-03-31T13:45:26.751Z,24.55
2023-03-31T13:48:26.133Z,21.97
2023-03-31T13:51:17.559Z,29.25
2023-03-31T13:54:09.057Z,22.75
2023-03-31T13:57:14.317Z,22.17
2023-03-31T14:00:13.035Z,22.77
2023-03-31T14:03:00.924Z,22.52
2023-03-31T14:05:35.238Z,23.02
2023-03-31T14:08:08.375Z,23.33
2023-03-31T14:10:40.741Z,21.98
2023-03-31T14:13:12.717Z,22.38
2023-03-31T14:15:44.857Z,21.60
2023-03-31T14:18:17.840Z,23.77
2023-03-31T14:23:32.023Z,24.15
2023-03-31T14:26:08.738Z,21.63
2023-03-31T14:28:58.364Z,22.33
2023-03-31T14:31:35.556Z,25.25
2023-03-31T14:34:36.927Z,23.20
2023-03-31T14:37:08.745Z,23.02
2023-03-31T14:39:41.329Z,24.88
2023-03-31T14:42:16.546Z,23.48
2023-03-31T14:44:48.684Z,21.98
2023-03-31T14:47:21.889Z,26.40
2023-03-31T14:50:02.831Z,25.27
2023-03-31T14:52:34.212Z,24.40
2023-03-31T14:55:02.935Z,24.15
2023-03-31T14:57:35.421Z,30.70
2023-03-31T15:00:10.244Z,22.63
2023-03-31T15:02:43.093Z,22.98
2023-03-31T15:05:26.334Z,24.38
2023-03-31T15:07:59.033Z,25.63
2023-03-31T15:10:30.735Z,27.90
2023-03-31T15:13:00.803Z,23.90
2023-03-31T15:15:29.354Z,25.83
2023-03-31T15:17:57.878Z,22.98
2023-03-31T15:20:35.089Z,28.08
2023-03-31T15:23:22.787Z,23.98
2023-03-31T15:25:53.478Z,26.92
2023-03-31T15:28:37.842Z,27.13
2023-03-31T15:31:20.165Z,24.48
2023-03-31T15:33:56.071Z,24.70
2023-03-31T15:36:24.844Z,27.55
2023-03-31T15:38:58.369Z,23.63
2023-03-31T15:41:32.400Z,27.88
2023-03-31T15:44:08.610Z,40.58
2023-03-31T15:46:57.799Z,23.70
2023-03-31T15:49:27.442Z,28.10
2023-03-31T15:51:57.804Z,24.08
2023-03-31T15:54:38.188Z,28.52
2023-03-31T15:57:08.531Z,23.35
2023-03-31T15:59:59.348Z,23.33
2023-03-31T16:02:37.238Z,27.75
2023-03-31T16:05:26.146Z,21.90
2023-03-31T16:07:59.844Z,23.13
2023-03-31T16:10:34.235Z,24.27
2023-03-31T16:13:07.084Z,22.80
2023-03-31T16:15:51.285Z,21.92
2023-03-31T16:18:36.619Z,24.42
2023-03-31T16:21:09.197Z,20.70
2023-03-31T16:24:21.026Z,19.85
2023-03-31T16:27:11.234Z,20.20
2023-03-31T16:29:46.898Z,20.38
2023-03-31T16:32:25.384Z,23.40
2023-03-31T16:35:04.588Z,20.27
2023-03-31T16:37:33.783Z,19.90
2023-03-31T16:40:10.149Z,20.77
2023-03-31T16:42:43.860Z,20.30
2023-03-31T16:45:19.109Z,21.50
2023-03-31T16:47:53.064Z,20.08
2023-03-31T16:50:27.908Z,98.22
2023-03-31T16:53:01.169Z,20.08
2023-03-31T16:55:36.596Z,20.48
2023-03-31T16:58:14.248Z,20.88
2023-03-31T17:00:43.397Z,21.05
2023-03-31T17:03:18.464Z,22.92
2023-03-31T17:05:57.827Z,21.17
2023-03-31T17:08:31.713Z,23.90
2023-03-31T17:11:04.597Z,20.20
2023-03-31T17:13:37.147Z,21.30
2023-03-31T17:16:19.316Z,20.25
2023-03-31T17:18:54.868Z,19.45
2023-03-31T17:21:25.117Z,23.30
2023-03-31T17:23:55.939Z,24.95
2023-03-31T17:26:25.100Z,44.70
2023-03-31T17:28:57.498Z,20.35
2023-03-31T17:31:30.861Z,22.58
2023-03-31T17:34:03.737Z,19.83
2023-03-31T17:39:12.949Z,18.95
2023-03-31T17:41:50.655Z,18.48
2023-03-31T17:44:25.223Z,18.85
2023-03-31T17:46:54.825Z,19.58
2023-03-31T17:49:27.667Z,23.38
2023-03-31T17:51:57.534Z,23.42
2023-03-31T17:54:27.147Z,20.58
2023-03-31T17:56:57.046Z,18.85
2023-03-31T17:59:29.218Z,22.05
2023-03-31T18:02:06.132Z,19.55
2023-03-31T18:04:38.826Z,19.70
2023-03-31T18:07:13.121Z,20.52
2023-03-31T18:09:45.247Z,20.15
2023-03-31T18:12:15.178Z,21.05
2023-03-31T18:14:47.475Z,18.95
2023-03-31T18:17:18.709Z,21.98
2023-03-31T18:19:53.244Z,19.15
2023-03-31T18:22:25.524Z,23.05
2023-03-31T18:24:54.802Z,18.65
2023-03-31T18:27:32.155Z,75.38
2023-03-31T18:30:03.468Z,18.50
2023-03-31T18:32:42.409Z,19.60
2023-03-31T18:35:13.673Z,19.10
2023-03-31T18:37:47.815Z,19.42
2023-03-31T18:40:18.502Z,23.95
2023-03-31T18:42:51.624Z,19.52
2023-03-31T18:45:21.397Z,23.40
2023-03-31T18:47:51.155Z,19.52
2023-03-31T18:50:24.475Z,22.13
2023-03-31T18:52:56.953Z,19.33
2023-03-31T18:55:26.765Z,21.98
2023-03-31T18:57:56.533Z,19.45
2023-03-31T19:00:25.297Z,22.15
2023-03-31T19:02:54.737Z,18.63
2023-03-31T19:05:26.161Z,21.75
2023-03-31T19:07:58.033Z,19.15
2023-03-31T19:10:27.592Z,24.02
2023-03-31T19:12:58.776Z,19.25
2023-03-31T19:15:30.941Z,21.50
2023-03-31T19:18:01.753Z,19.25
2023-03-31T19:20:39.646Z,18.80
2023-03-31T19:23:10.188Z,19.42
2023-03-31T19:25:48.248Z,18.58
2023-03-31T19:28:21.203Z,22.70
2023-03-31T19:30:52.049Z,18.48
2023-03-31T19:33:22.608Z,20.70
2023-03-31T19:35:53.635Z,18.58
2023-03-31T19:38:23.423Z,21.33
2023-03-31T19:40:52.792Z,18.50
2023-03-31T19:43:24.718Z,21.75
2023-03-31T19:45:56.186Z,18.77
2023-03-31T19:48:26.885Z,21.63
2023-03-31T19:50:59.927Z,18.95
2023-03-31T19:55:59.697Z,25.20
2023-03-31T19:58:29.492Z,22.27
2023-03-31T20:00:59.335Z,19.60
2023-03-31T20:03:28.958Z,22.70
2023-03-31T20:06:07.623Z,19.10
2023-03-31T20:08:37.392Z,20.65
2023-03-31T20:11:08.233Z,20.02
2023-03-31T20:13:37.060Z,18.73
2023-03-31T20:16:11.275Z,19.02
2023-03-31T20:18:44.219Z,19.15
2023-03-31T20:21:16.685Z,21.00
2023-03-31T20:23:46.668Z,18.60
2023-03-31T20:26:17.834Z,20.08
2023-03-31T20:28:47.698Z,17.73
2023-03-31T20:31:18.934Z,20.48
2023-03-31T20:33:48.087Z,18.50
2023-03-31T20:36:20.764Z,21.13
2023-03-31T20:38:52.452Z,18.40
2023-03-31T20:41:23.654Z,22.23
2023-03-31T20:43:52.511Z,18.92
2023-03-31T20:46:21.711Z,22.20
2023-03-31T20:48:52.402Z,18.17
2023-03-31T20:51:24.771Z,21.48
2023-03-31T20:53:54.788Z,18.70
2023-03-31T20:56:26.015Z,21.38
2023-03-31T20:58:55.398Z,18.15
2023-03-31T21:01:25.064Z,20.70
2023-03-31T21:03:54.939Z,17.90
2023-03-31T21:06:25.539Z,20.25
2023-03-31T21:08:55.812Z,17.42
2023-03-31T21:11:24.508Z,19.70
2023-03-31T21:13:53.841Z,17.70
2023-03-31T21:16:23.921Z,37.88
2023-03-31T21:18:55.092Z,16.85
2023-03-31T21:21:25.798Z,21.70
2023-03-31T21:23:54.722Z,17.08
2023-03-31T21:26:25.280Z,19.55
2023-03-31T21:28:55.390Z,17.15
2023-03-31T21:31:27.533Z,44.08
2023-03-31T21:33:57.896Z,17.55
2023-03-31T21:36:27.966Z,19.75
2023-03-31T21:38:57.541Z,16.00
2023-03-31T21:41:28.274Z,18.50
2023-03-31T21:43:57.954Z,15.80
2023-03-31T21:46:28.356Z,17.42
2023-03-31T21:48:57.692Z,16.08
2023-03-31T21:51:28.822Z,19.75
2023-03-31T21:53:57.594Z,16.10
2023-03-31T21:56:27.808Z,18.27
2023-03-31T21:58:57.441Z,15.70
2023-03-31T22:01:26.108Z,19.05
2023-03-31T22:03:54.889Z,16.02
2023-03-31T22:06:23.734Z,18.05
2023-03-31T22:08:53.914Z,16.30
2023-03-31T22:11:23.053Z,17.80
2023-03-31T22:13:54.490Z,15.88
2023-03-31T22:16:24.894Z,19.15
2023-03-31T22:18:55.563Z,15.70
2023-03-31T22:21:26.350Z,17.80
2023-03-31T22:24:00.624Z,15.63
2023-03-31T22:26:31.316Z,18.75
2023-03-31T22:29:00.525Z,15.90
2023-03-31T22:31:29.285Z,18.20
2023-03-31T22:33:57.974Z,15.80
2023-03-31T22:36:27.392Z,18.02
2023-03-31T22:38:57.365Z,16.13
2023-03-31T22:41:26.557Z,18.45
2023-03-31T22:43:56.297Z,15.57
2023-03-31T22:46:25.974Z,18.98
2023-03-31T22:48:54.525Z,17.15
2023-03-31T22:51:23.068Z,18.23
2023-03-31T22:53:52.954Z,15.80
2023-03-31T22:56:23.845Z,18.23
2023-03-31T22:58:52.982Z,15.98
2023-03-31T23:01:22.695Z,18.05
2023-03-31T23:03:51.557Z,15.57
2023-03-31T23:06:20.684Z,17.83
2023-03-31T23:08:49.813Z,15.30
2023-03-31T23:11:19.044Z,18.58
2023-03-31T23:13:49.103Z,15.02
2023-03-31T23:16:19.538Z,18.65
2023-03-31T23:18:48.831Z,15.27
2023-03-31T23:21:20.284Z,17.60
2023-03-31T23:23:50.538Z,15.02
2023-03-31T23:26:20.316Z,18.05
2023-03-31T23:28:51.047Z,18.35
2023-03-31T23:31:21.142Z,16.80
2023-03-31T23:33:49.846Z,14.43
2023-03-31T23:36:21.166Z,16.80
2023-03-31T23:38:50.406Z,14.68
2023-03-31T23:41:20.265Z,17.77
2023-03-31T23:43:51.506Z,15.73
2023-03-31T23:46:20.079Z,17.17
2023-03-31T23:48:48.764Z,14.40
2023-03-31T23:51:17.404Z,16.35
2023-03-31T23:53:46.075Z,14.55
2023-03-31T23:56:15.871Z,16.17
2023-03-31T23:58:45.278Z,13.65
